Parker, CO

5:13 AM MDT on April 28, 2015 (GMT -0600)
Stroh Ranch | | Change Station
CLOSE
Current Station
Personal Weather Station
Location: Parker, CO
Elevation: 5902 ft
Nearby Weather Stations

Elev 5902 ft 39.49 °N, 104.77 °W | Updated 7 minutes ago

Overcast
Overcast
35.6 °F
Feels Like 36 °F
N
0.0
Wind Variable Wind from SSE

Today
High -- | Low -- °F
--% Chance of Precip.
Yesterday
High -- | Low -- °F
Precip. -- in
6:04 AM 7:49 PM
Waxing Gibbous, 73% visible
Pressure 30.35 in
Visibility 7.0 miles
Clouds Scattered Clouds 2200 ft
Mostly Cloudy 3500 ft
Windchill 36 °F
Dew Point 35 °F
Humidity 99%
Rainfall 0.00 in
Snow Depth Not available.
UV 0 out of 12
Pollen 3.20 out of 12
Air Quality Not available.
Flu Activity Sporadic
METAR KAPA 281053Z 00000KT 7SM SCT022 BKN035 04/03 A3035 RMK AO2 SLP278 T00390028

More Conditions Fewer Conditions

Pressure 30.35 in
Visibility 7.0 miles
Clouds Scattered Clouds 2200 ft
Mostly Cloudy 3500 ft
Windchill 36 °F
Dew Point 35 °F
Humidity 99%
Rainfall 0.00 in
Snow Depth Not available.
UV 0 out of 12
Pollen 3.20 out of 12
Air Quality Not available.
Flu Activity Sporadic
METAR KAPA 281053Z 00000KT 7SM SCT022 BKN035 04/03 A3035 RMK AO2 SLP278 T00390028

More Conditions Fewer Conditions

10-Day Weather Forecast

Almanac

Astronomy

Apr. 28, 2015 Rise Set
Actual Time
Civil Twilight
Nautical Twilight
Astronomical Twilight
Moon
Length of Visible Light
Length of Day
Tomorrow will be .
, % of the Moon is Illuminated

Today's Extremes

State Highs State Lows

Community

WunderPhotos

Upload Photos

1,817,606 photos uploaded!

WunderBlogs® & News

Nearby

Air Quality

  Air Quality AQ Index Pollutant
Not available.

Snow Depth

Station Depth Elevation

Earthquake Activity

City Distance Mag. Time & Date
Minimum magnitude displayed is 2.5.

Coastal Water Temperatures

Place Temperature

Stations

Nearby Weather Stations

Station Location Temp. Windchill Dew Point Humidity Wind Precip. Elev Updated Type